Time,TemperatureF,DewpointF,PressureIn,WindDirection,WindDirectionDegrees,WindSpeedMPH,WindSpeedGustMPH,Humidity,HourlyPrecipIn,Conditions,Clouds,dailyrainin,SoftwareType,DateUTC
2013-05-10 00:00:00,60.4,57.5,29.94,West,269,0.0,0.0,90,0.00,,,0.00,Wunderground v.1.12,2013-05-10 04:00:00,
2013-05-10 00:10:00,60.2,57.3,29.95,West,269,0.0,0.0,90,0.00,,,0.00,Wunderground v.1.12,2013-05-10 04:10:00,
2013-05-10 00:20:00,60.1,57.2,29.95,West,269,0.0,0.0,90,0.00,,,0.00,Wunderground v.1.12,2013-05-10 04:20:00,
2013-05-10 00:30:00,59.9,57.0,29.95,West,269,0.0,0.0,90,0.00,,,0.00,Wunderground v.1.12,2013-05-10 04:30:00,
2013-05-10 00:40:00,59.8,56.9,29.95,West,269,0.0,0.0,90,0.00,,,0.00,Wunderground v.1.12,2013-05-10 04:40:00,
2013-05-10 00:50:00,59.6,56.7,29.95,West,269,0.0,0.0,90,0.00,,,0.00,Wunderground v.1.12,2013-05-10 04:50:00,
2013-05-10 01:00:00,59.6,56.7,29.95,West,269,0.0,0.0,90,0.00,,,0.00,Wunderground v.1.12,2013-05-10 05:00:00,
2013-05-10 01:10:00,59.6,56.7,29.94,West,269,0.0,0.0,90,0.00,,,0.00,Wunderground v.1.12,2013-05-10 05:10:00,
2013-05-10 01:20:00,-999.9,-99.9,29.94,North,32767,-999.0,0.0,255,-99.99,,,0.00,Wunderground v.1.12,2013-05-10 05:20:00,
2013-05-10 01:30:00,-999.9,-99.9,29.94,North,32767,-999.0,0.0,255,-99.99,,,0.00,Wunderground v.1.12,2013-05-10 05:30:00,
2013-05-10 01:40:00,-999.9,-99.9,29.95,North,32767,-999.0,0.0,255,-99.99,,,0.00,Wunderground v.1.12,2013-05-10 05:40:00,
2013-05-10 01:50:00,-999.9,-99.9,29.95,North,32767,-999.0,0.0,255,-99.99,,,0.00,Wunderground v.1.12,2013-05-10 05:50:00,
2013-05-10 02:00:00,-999.9,-99.9,29.95,North,32767,-999.0,0.0,255,-99.99,,,0.00,Wunderground v.1.12,2013-05-10 06:00:00,
2013-05-10 02:10:00,-999.9,-99.9,29.95,North,32767,-999.0,0.0,255,-99.99,,,0.00,Wunderground v.1.12,2013-05-10 06:10:00,
2013-05-10 02:20:00,-999.9,-99.9,29.95,North,32767,-999.0,0.0,255,-99.99,,,0.00,Wunderground v.1.12,2013-05-10 06:20:00,
2013-05-10 02:30:00,-999.9,-99.9,29.95,North,32767,-999.0,0.0,255,-99.99,,,0.00,Wunderground v.1.12,2013-05-10 06:30:00,
2013-05-10 02:40:00,-999.9,-99.9,29.95,North,32767,-999.0,0.0,255,-99.99,,,0.00,Wunderground v.1.12,2013-05-10 06:40:00,
2013-05-10 02:50:00,-999.9,-99.9,29.95,North,32767,-999.0,0.0,255,-99.99,,,0.00,Wunderground v.1.12,2013-05-10 06:50:00,
2013-05-10 03:00:00,-999.9,-99.9,29.95,North,32767,-999.0,0.0,255,-99.99,,,0.00,Wunderground v.1.12,2013-05-10 07:00:00,
2013-05-10 03:10:00,-999.9,-99.9,29.95,North,32767,-999.0,0.0,255,-99.99,,,0.00,Wunderground v.1.12,2013-05-10 07:10:00,
2013-05-10 03:20:00,-999.9,-99.9,29.95,North,32767,-999.0,0.0,255,-99.99,,,0.00,Wunderground v.1.12,2013-05-10 07:20:00,
2013-05-10 03:30:00,-999.9,-99.9,29.95,North,32767,-999.0,0.0,255,-99.99,,,0.00,Wunderground v.1.12,2013-05-10 07:30:00,
2013-05-10 03:40:00,-999.9,-99.9,29.95,North,32767,-999.0,0.0,255,-99.99,,,0.00,Wunderground v.1.12,2013-05-10 07:40:00,
2013-05-10 03:50:00,-999.9,-99.9,29.95,North,32767,-999.0,0.0,255,-99.99,,,0.00,Wunderground v.1.12,2013-05-10 07:50:00,
2013-05-10 04:00:00,-999.9,-99.9,29.95,North,32767,-999.0,0.0,255,-99.99,,,0.00,Wunderground v.1.12,2013-05-10 08:00:00,
2013-05-10 04:10:00,-999.9,-99.9,29.95,North,32767,-999.0,0.0,255,-99.99,,,0.00,Wunderground v.1.12,2013-05-10 08:10:00,
2013-05-10 04:20:00,-999.9,-99.9,29.95,North,32767,-999.0,0.0,255,-99.99,,,0.00,Wunderground v.1.12,2013-05-10 08:20:00,
2013-05-10 04:30:00,-999.9,-99.9,29.95,North,32767,-999.0,0.0,255,-99.99,,,0.00,Wunderground v.1.12,2013-05-10 08:30:00,
2013-05-10 04:40:00,-999.9,-99.9,29.94,North,32767,-999.0,0.0,255,-99.99,,,0.00,Wunderground v.1.12,2013-05-10 08:40:00,
2013-05-10 04:50:00,-999.9,-99.9,29.94,North,32767,-999.0,0.0,255,-99.99,,,0.00,Wunderground v.1.12,2013-05-10 08:50:00,
2013-05-10 05:00:00,-999.9,-99.9,29.94,North,32767,-999.0,0.0,255,-99.99,,,0.00,Wunderground v.1.12,2013-05-10 09:00:00,
2013-05-10 05:10:00,-999.9,-99.9,29.95,North,32767,-999.0,0.0,255,-99.99,,,0.00,Wunderground v.1.12,2013-05-10 09:10:00,
2013-05-10 05:20:00,-999.9,-99.9,29.95,North,32767,-999.0,0.0,255,-99.99,,,0.00,Wunderground v.1.12,2013-05-10 09:20:00,
2013-05-10 05:30:00,-999.9,-99.9,29.95,North,32767,-999.0,0.0,255,-99.99,,,0.00,Wunderground v.1.12,2013-05-10 09:30:00,
2013-05-10 05:40:00,-999.9,-99.9,29.95,North,32767,-999.0,0.0,255,-99.99,,,0.00,Wunderground v.1.12,2013-05-10 09:40:00,
2013-05-10 05:50:00,-999.9,-99.9,29.95,North,32767,-999.0,0.0,255,-99.99,,,0.00,Wunderground v.1.12,2013-05-10 09:50:00,
2013-05-10 06:00:00,-999.9,-99.9,29.95,North,32767,-999.0,0.0,255,-99.99,,,0.00,Wunderground v.1.12,2013-05-10 10:00:00,
2013-05-10 06:10:00,-999.9,-99.9,29.95,North,32767,-999.0,0.0,255,-99.99,,,0.00,Wunderground v.1.12,2013-05-10 10:10:00,
2013-05-10 06:20:00,-999.9,-99.9,29.95,North,32767,-999.0,0.0,255,-99.99,,,0.00,Wunderground v.1.12,2013-05-10 10:20:00,
2013-05-10 06:30:00,56.0,54.6,29.96,West,269,0.0,0.0,95,0.00,,,0.00,Wunderground v.1.12,2013-05-10 10:30:00,
2013-05-10 06:40:00,56.0,54.6,29.97,West,269,0.0,0.0,95,0.00,,,0.00,Wunderground v.1.12,2013-05-10 10:40:00,
2013-05-10 06:50:00,56.5,55.1,29.97,West,269,0.0,0.0,95,0.00,,,0.00,Wunderground v.1.12,2013-05-10 10:50:00,
2013-05-10 07:00:00,57.0,55.6,29.96,West,269,0.0,0.0,95,0.00,,,0.00,Wunderground v.1.12,2013-05-10 11:00:00,
2013-05-10 07:10:00,58.3,56.9,29.96,West,269,0.0,0.0,95,0.00,,,0.00,Wunderground v.1.12,2013-05-10 11:10:00,
2013-05-10 07:20:00,58.4,57.0,29.96,West,269,0.0,0.0,95,0.00,,,0.00,Wunderground v.1.12,2013-05-10 11:20:00,
2013-05-10 07:30:00,60.7,59.6,29.97,West,269,0.0,0.0,96,0.00,,,0.00,Wunderground v.1.12,2013-05-10 11:30:00,
2013-05-10 07:40:00,63.1,61.6,29.97,West,269,0.0,0.0,95,0.00,,,0.00,Wunderground v.1.12,2013-05-10 11:40:00,
2013-05-10 07:50:00,64.5,62.4,29.97,West,269,0.0,0.0,93,0.00,,,0.00,Wunderground v.1.12,2013-05-10 11:50:00,
2013-05-10 08:00:00,65.6,62.3,29.97,West,269,0.0,0.0,89,0.00,,,0.00,Wunderground v.1.12,2013-05-10 12:00:00,
2013-05-10 08:10:00,66.9,62.2,29.97,West,269,0.0,0.0,85,0.00,,,0.00,Wunderground v.1.12,2013-05-10 12:10:00,
2013-05-10 08:20:00,68.6,62.2,29.97,West,269,0.0,0.0,80,0.00,,,0.00,Wunderground v.1.12,2013-05-10 12:20:00,
2013-05-10 08:30:00,69.4,62.2,29.97,West,269,0.0,0.0,78,0.00,,,0.00,Wunderground v.1.12,2013-05-10 12:30:00,
2013-05-10 08:40:00,70.4,61.7,29.97,West,269,0.0,0.0,74,0.00,,,0.00,Wunderground v.1.12,2013-05-10 12:40:00,
2013-05-10 08:50:00,71.3,62.6,29.97,West,269,0.0,0.0,74,0.00,,,0.00,Wunderground v.1.12,2013-05-10 12:50:00,
2013-05-10 09:00:00,72.1,63.0,29.97,West,269,0.0,0.0,73,0.00,,,0.00,Wunderground v.1.12,2013-05-10 13:00:00,
2013-05-10 09:10:00,73.2,62.4,29.97,North,360,0.0,2.0,69,0.00,,,0.00,Wunderground v.1.12,2013-05-10 13:10:00,
2013-05-10 09:20:00,73.9,63.5,29.97,North,360,0.0,1.0,70,0.00,,,0.00,Wunderground v.1.12,2013-05-10 13:20:00,
2013-05-10 09:30:00,75.1,63.0,29.97,North,360,0.0,0.0,66,0.00,,,0.00,Wunderground v.1.12,2013-05-10 13:30:00,
2013-05-10 09:40:00,75.4,62.4,29.97,NNE,30,1.0,1.0,64,0.00,,,0.00,Wunderground v.1.12,2013-05-10 13:40:00,
2013-05-10 09:50:00,74.2,62.5,29.97,NE,49,1.0,1.0,67,0.00,,,0.00,Wunderground v.1.12,2013-05-10 13:50:00,
2013-05-10 10:00:00,74.4,62.7,29.97,NE,55,2.0,2.0,67,0.00,,,0.00,Wunderground v.1.12,2013-05-10 14:00:00,
2013-05-10 10:10:00,73.9,61.4,29.97,NE,53,4.0,4.0,65,0.00,,,0.00,Wunderground v.1.12,2013-05-10 14:10:00,
2013-05-10 10:20:00,73.9,61.4,29.97,East,81,3.0,3.0,65,0.00,,,0.00,Wunderground v.1.12,2013-05-10 14:20:00,
2013-05-10 10:30:00,74.4,62.3,29.97,ENE,76,1.0,1.0,66,0.00,,,0.00,Wunderground v.1.12,2013-05-10 14:30:00,
2013-05-10 10:40:00,76.7,63.6,29.97,NE,53,0.0,4.0,64,0.00,,,0.00,Wunderground v.1.12,2013-05-10 14:40:00,
2013-05-10 10:50:00,78.8,61.8,29.97,NE,54,0.0,2.0,56,0.00,,,0.00,Wunderground v.1.12,2013-05-10 14:50:00,
2013-05-10 11:00:00,78.3,60.8,29.97,NE,42,2.0,2.0,55,0.00,,,0.00,Wunderground v.1.12,2013-05-10 15:00:00,
2013-05-10 11:10:00,79.4,64.3,29.97,NNE,25,0.0,6.0,60,0.00,,,0.00,Wunderground v.1.12,2013-05-10 15:10:00,
2013-05-10 11:20:00,79.9,60.7,29.97,NE,38,1.0,6.0,52,0.00,,,0.00,Wunderground v.1.12,2013-05-10 15:20:00,
2013-05-10 11:30:00,79.8,61.7,29.97,NE,36,1.0,1.0,54,0.00,,,0.00,Wunderground v.1.12,2013-05-10 15:30:00,
2013-05-10 11:40:00,79.0,60.9,29.97,NE,51,1.0,6.0,54,0.00,,,0.00,Wunderground v.1.12,2013-05-10 15:40:00,
2013-05-10 11:50:00,78.8,60.2,29.97,SE,126,1.0,1.0,53,0.00,,,0.00,Wunderground v.1.12,2013-05-10 15:50:00,
2013-05-10 12:00:00,78.3,60.8,29.95,NE,49,1.0,1.0,55,0.00,,,0.00,Wunderground v.1.12,2013-05-10 16:00:00,
2013-05-10 12:10:00,79.2,59.5,29.95,North,355,0.0,6.0,51,0.00,,,0.00,Wunderground v.1.12,2013-05-10 16:10:00,
2013-05-10 12:20:00,79.0,59.3,29.95,South,171,0.0,6.0,51,0.00,,,0.00,Wunderground v.1.12,2013-05-10 16:20:00,
2013-05-10 12:30:00,79.4,61.8,29.94,ENE,64,1.0,1.0,55,0.00,,,0.00,Wunderground v.1.12,2013-05-10 16:30:00,
2013-05-10 12:40:00,79.6,59.3,29.94,NE,43,0.0,6.0,50,0.00,,,0.00,Wunderground v.1.12,2013-05-10 16:40:00,
2013-05-10 12:50:00,78.5,59.4,29.94,SSE,163,1.0,6.0,52,0.00,,,0.00,Wunderground v.1.12,2013-05-10 16:50:00,
2013-05-10 13:00:00,78.1,55.6,29.94,ESE,113,2.0,6.0,46,0.00,,,0.00,Wunderground v.1.12,2013-05-10 17:00:00,
2013-05-10 13:10:00,77.9,56.6,29.94,NE,36,1.0,1.0,48,0.00,,,0.00,Wunderground v.1.12,2013-05-10 17:10:00,
2013-05-10 13:20:00,77.9,58.3,29.94,SE,145,1.0,1.0,51,0.00,,,0.00,Wunderground v.1.12,2013-05-10 17:20:00,
2013-05-10 13:30:00,78.1,55.0,29.94,SE,134,1.0,1.0,45,0.00,,,0.00,Wunderground v.1.12,2013-05-10 17:30:00,
2013-05-10 13:40:00,78.3,55.2,29.93,SE,126,0.0,6.0,45,0.00,,,0.00,Wunderground v.1.12,2013-05-10 17:40:00,
2013-05-10 13:50:00,78.1,55.6,29.93,NE,44,1.0,6.0,46,0.00,,,0.00,Wunderground v.1.12,2013-05-10 17:50:00,
2013-05-10 14:00:00,77.7,57.0,29.93,East,82,2.0,2.0,49,0.00,,,0.00,Wunderground v.1.12,2013-05-10 18:00:00,
2013-05-10 14:10:00,77.7,55.9,29.92,NNE,22,1.0,1.0,47,0.00,,,0.00,Wunderground v.1.12,2013-05-10 18:10:00,
2013-05-10 14:20:00,77.7,54.7,29.92,ESE,107,0.0,6.0,45,0.00,,,0.00,Wunderground v.1.12,2013-05-10 18:20:00,
2013-05-10 14:30:00,77.4,56.2,29.91,ESE,114,0.0,6.0,48,0.00,,,0.00,Wunderground v.1.12,2013-05-10 18:30:00,
2013-05-10 14:40:00,77.4,55.0,29.91,SE,126,0.0,6.0,46,0.00,,,0.00,Wunderground v.1.12,2013-05-10 18:40:00,
2013-05-10 14:50:00,77.6,55.8,29.91,SSE,164,0.0,1.0,47,0.00,,,0.00,Wunderground v.1.12,2013-05-10 18:50:00,
2013-05-10 15:00:00,78.1,57.9,29.91,SSE,148,0.0,1.0,50,0.00,,,0.00,Wunderground v.1.12,2013-05-10 19:00:00,
2013-05-10 15:10:00,78.1,57.9,29.91,SSE,155,1.0,1.0,50,0.00,,,0.00,Wunderground v.1.12,2013-05-10 19:10:00,
2013-05-10 15:20:00,78.5,60.5,29.90,SE,131,1.0,4.0,54,0.00,,,0.00,Wunderground v.1.12,2013-05-10 19:20:00,
2013-05-10 15:30:00,78.5,59.9,29.89,SE,138,0.0,1.0,53,0.00,,,0.00,Wunderground v.1.12,2013-05-10 19:30:00,
2013-05-10 15:40:00,78.3,59.8,29.89,ESE,121,1.0,1.0,53,0.00,,,0.00,Wunderground v.1.12,2013-05-10 19:40:00,
2013-05-10 15:50:00,78.3,60.8,29.89,SSE,148,0.0,1.0,55,0.00,,,0.00,Wunderground v.1.12,2013-05-10 19:50:00,
2013-05-10 16:00:00,78.6,58.4,29.88,SE,144,0.0,1.0,50,0.00,,,0.00,Wunderground v.1.12,2013-05-10 20:00:00,
2013-05-10 16:10:00,78.3,58.7,29.88,NE,35,1.0,1.0,51,0.00,,,0.00,Wunderground v.1.12,2013-05-10 20:10:00,
2013-05-10 16:20:00,77.9,57.8,29.88,ESE,120,1.0,1.0,50,0.00,,,0.00,Wunderground v.1.12,2013-05-10 20:20:00,
2013-05-10 16:30:00,77.4,58.4,29.87,SSE,148,1.0,1.0,52,0.00,,,0.00,Wunderground v.1.12,2013-05-10 20:30:00,
2013-05-10 16:40:00,76.8,58.4,29.87,SE,142,1.0,1.0,53,0.00,,,0.00,Wunderground v.1.12,2013-05-10 20:40:00,
2013-05-10 16:50:00,77.6,59.6,29.87,South,188,0.0,1.0,54,0.00,,,0.00,Wunderground v.1.12,2013-05-10 20:50:00,
2013-05-10 17:00:00,77.4,59.5,29.88,SSE,155,1.0,1.0,54,0.00,,,0.00,Wunderground v.1.12,2013-05-10 21:00:00,
2013-05-10 17:10:00,76.7,59.3,29.88,ESE,120,1.0,1.0,55,0.00,,,0.00,Wunderground v.1.12,2013-05-10 21:10:00,
2013-05-10 17:20:00,76.5,60.1,29.87,SE,144,1.0,1.0,57,0.00,,,0.00,Wunderground v.1.12,2013-05-10 21:20:00,
2013-05-10 17:30:00,76.3,59.4,29.87,ESE,123,1.0,1.0,56,0.00,,,0.00,Wunderground v.1.12,2013-05-10 21:30:00,
2013-05-10 17:40:00,76.1,59.3,29.87,ESE,118,0.0,5.0,56,0.00,,,0.00,Wunderground v.1.12,2013-05-10 21:40:00,
2013-05-10 17:50:00,75.8,58.5,29.87,SSE,165,1.0,5.0,55,0.00,,,0.00,Wunderground v.1.12,2013-05-10 21:50:00,
2013-05-10 18:00:00,75.8,58.5,29.86,SSE,167,1.0,1.0,55,0.00,,,0.00,Wunderground v.1.12,2013-05-10 22:00:00,
2013-05-10 18:10:00,75.8,58.5,29.86,SSE,161,1.0,1.0,55,0.00,,,0.00,Wunderground v.1.12,2013-05-10 22:10:00,
2013-05-10 18:20:00,75.6,58.8,29.85,SSE,157,1.0,1.0,56,0.00,,,0.00,Wunderground v.1.12,2013-05-10 22:20:00,
2013-05-10 18:30:00,75.6,59.3,29.85,SE,144,0.0,5.0,57,0.00,,,0.00,Wunderground v.1.12,2013-05-10 22:30:00,
2013-05-10 18:40:00,75.4,58.1,29.85,SSE,168,0.0,5.0,55,0.00,,,0.00,Wunderground v.1.12,2013-05-10 22:40:00,
2013-05-10 18:50:00,75.3,57.5,29.85,SE,137,0.0,5.0,54,0.00,,,0.00,Wunderground v.1.12,2013-05-10 22:50:00,
2013-05-10 19:00:00,74.9,57.1,29.84,SE,137,0.0,5.0,54,0.00,,,0.00,Wunderground v.1.12,2013-05-10 23:00:00,
2013-05-10 19:10:00,74.6,57.4,29.84,SE,139,0.0,5.0,55,0.00,,,0.00,Wunderground v.1.12,2013-05-10 23:10:00,
2013-05-10 19:20:00,74.2,58.0,29.84,SSE,160,0.0,5.0,57,0.00,,,0.00,Wunderground v.1.12,2013-05-10 23:20:00,
2013-05-10 19:30:00,73.9,59.1,29.84,SE,140,0.0,5.0,60,0.00,,,0.00,Wunderground v.1.12,2013-05-10 23:30:00,
2013-05-10 19:40:00,73.5,59.7,29.84,SE,139,1.0,1.0,62,0.00,,,0.00,Wunderground v.1.12,2013-05-10 23:40:00,
2013-05-10 19:50:00,73.0,60.1,29.83,SE,142,1.0,1.0,64,0.00,,,0.00,Wunderground v.1.12,2013-05-10 23:50:00,
2013-05-10 20:00:00,72.5,60.5,29.83,SSE,149,1.0,1.0,66,0.00,,,0.00,Wunderground v.1.12,2013-05-11 00:00:00,
2013-05-10 20:10:00,72.1,60.5,29.83,SE,131,1.0,3.0,67,0.00,,,0.00,Wunderground v.1.12,2013-05-11 00:10:00,
2013-05-10 20:20:00,71.6,60.9,29.84,SSE,165,1.0,1.0,69,0.00,,,0.00,Wunderground v.1.12,2013-05-11 00:20:00,
2013-05-10 20:30:00,71.1,60.8,29.84,SSE,153,1.0,2.0,70,0.00,,,0.00,Wunderground v.1.12,2013-05-11 00:30:00,
2013-05-10 20:40:00,70.9,61.0,29.84,SE,142,1.0,1.0,71,0.00,,,0.00,Wunderground v.1.12,2013-05-11 00:40:00,
2013-05-10 20:50:00,70.8,61.3,29.85,ESE,123,0.0,0.0,72,0.00,,,0.00,Wunderground v.1.12,2013-05-11 00:50:00,
2013-05-10 21:00:00,70.4,61.3,29.85,ESE,123,0.0,0.0,73,0.00,,,0.00,Wunderground v.1.12,2013-05-11 01:00:00,
2013-05-10 21:10:00,70.1,61.4,29.85,SE,134,0.0,6.0,74,0.00,,,0.00,Wunderground v.1.12,2013-05-11 01:10:00,
2013-05-10 21:20:00,69.9,61.6,29.85,SE,134,0.0,6.0,75,0.00,,,0.00,Wunderground v.1.12,2013-05-11 01:20:00,
2013-05-10 21:30:00,69.6,61.7,29.85,SE,134,0.0,6.0,76,0.00,,,0.00,Wunderground v.1.12,2013-05-11 01:30:00,
2013-05-10 21:40:00,69.3,61.8,29.85,SE,134,0.0,6.0,77,0.00,,,0.00,Wunderground v.1.12,2013-05-11 01:40:00,
2013-05-10 21:50:00,68.9,61.8,29.85,SE,134,0.0,6.0,78,0.00,,,0.00,Wunderground v.1.12,2013-05-11 01:50:00,
2013-05-10 22:00:00,68.8,62.0,29.84,SE,134,0.0,6.0,79,0.00,,,0.00,Wunderground v.1.12,2013-05-11 02:00:00,
2013-05-10 22:10:00,68.6,61.8,29.84,WNW,283,1.0,6.0,79,0.00,,,0.00,Wunderground v.1.12,2013-05-11 02:10:00,
2013-05-10 22:20:00,68.6,61.5,29.86,NW,324,1.0,6.0,78,0.00,,,0.00,Wunderground v.1.12,2013-05-11 02:20:00,
2013-05-10 22:30:00,69.1,60.8,29.86,WSW,241,1.0,1.0,75,0.00,,,0.00,Wunderground v.1.12,2013-05-11 02:30:00,
2013-05-10 22:40:00,69.4,60.8,29.86,WSW,241,0.0,6.0,74,0.00,,,0.00,Wunderground v.1.12,2013-05-11 02:40:00,
2013-05-10 22:50:00,69.4,60.8,29.86,SSE,163,0.0,6.0,74,0.00,,,0.00,Wunderground v.1.12,2013-05-11 02:50:00,
2013-05-10 23:00:00,69.3,60.7,29.87,South,185,0.0,6.0,74,0.00,,,0.00,Wunderground v.1.12,2013-05-11 03:00:00,
2013-05-10 23:10:00,68.9,60.6,29.87,SSW,194,0.0,6.0,75,0.00,,,0.00,Wunderground v.1.12,2013-05-11 03:10:00,
2013-05-10 23:20:00,68.4,60.5,29.86,South,186,0.0,6.0,76,0.00,,,0.00,Wunderground v.1.12,2013-05-11 03:20:00,
2013-05-10 23:30:00,67.9,60.8,29.91,WSW,248,1.0,1.0,78,0.00,,,0.00,Wunderground v.1.12,2013-05-11 03:30:00,
2013-05-10 23:40:00,67.8,61.0,29.91,West,269,2.0,2.0,79,0.00,,,0.00,Wunderground v.1.12,2013-05-11 03:40:00,
2013-05-10 23:50:00,66.6,61.9,29.90,WSW,252,1.0,1.0,85,0.36,,,0.09,Wunderground v.1.12,2013-05-11 03:50:00,